Time;durP1;ratioP1;P1;durP2;ratioP2;P2;SDS_P1;SDS_P2;PMS_P1;PMS_P2;Temp;Humidity;BMP_temperature;BMP_pressure;BME280_temperature;BME280_humidity;BME280_pressure;Samples;Min_cycle;Max_cycle;Signal;HPM_P1;HPM_P2
2023/01/09 00:02:15;;;;;;;;;0.25;0.00;;;;;8.66;67.60;99289.69;5035962;27;45716;-63
2023/01/09 00:04:40;;;;;;;;;3.75;2.00;;;;;8.64;67.91;99281.69;5050321;28;45429;-64
2023/01/09 00:07:06;;;;;;;;;1.00;1.00;;;;;8.65;67.61;99291.56;5031355;28;45537;-64
2023/01/09 00:09:31;;;;;;;;;1.00;1.00;;;;;8.65;68.22;99285.28;5048840;28;45617;-62
2023/01/09 00:11:56;;;;;;;;;2.00;0.00;;;;;8.49;68.07;99262.16;5049121;28;45542;-64
2023/01/09 00:14:23;;;;;;;;;1.00;1.00;;;;;8.58;68.50;99285.38;5031709;28;45678;-63
2023/01/09 00:16:48;;;;;;;;;1.60;0.00;;;;;8.58;68.41;99293.59;5051498;28;45438;-63
2023/01/09 00:19:14;;;;;;;;;0.00;0.00;;;;;8.63;67.79;99304.66;5034327;28;45445;-64
2023/01/09 00:21:39;;;;;;;;;0.00;0.00;;;;;8.62;68.38;99304.88;5069240;28;45568;-63
2023/01/09 00:24:05;;;;;;;;;1.00;1.00;;;;;8.61;68.54;99304.06;5067866;28;45388;-62
2023/01/09 00:26:31;;;;;;;;;0.50;0.00;;;;;8.58;68.29;99304.53;5053052;28;45387;-63
2023/01/09 00:28:56;;;;;;;;;2.25;1.00;;;;;8.42;68.26;99281.38;5035312;28;45719;-63
2023/01/09 00:31:22;;;;;;;;;1.00;1.00;;;;;8.57;68.17;99305.59;5052933;28;45504;-62
2023/01/09 00:33:56;;;;;;;;;1.50;0.00;;;;;8.60;68.60;99302.38;5053508;28;45831;-63
2023/01/09 00:36:22;;;;;;;;;1.40;0.20;;;;;8.46;68.31;99277.13;5051942;28;45575;-62
2023/01/09 00:38:48;;;;;;;;;2.00;1.00;;;;;8.63;68.06;99295.59;5053450;28;45778;-62
2023/01/09 00:41:16;;;;;;;;;2.00;1.25;;;;;8.61;67.42;99289.53;5052737;28;45508;-63
2023/01/09 00:43:47;;;;;;;;;1.00;1.00;;;;;8.54;68.39;99290.47;5068104;28;45458;-62
2023/01/09 00:46:12;;;;;;;;;1.40;1.00;;;;;8.41;67.66;99252.38;5051602;28;45446;-63
2023/01/09 00:48:38;;;;;;;;;2.75;2.00;;;;;8.62;68.87;99293.94;5067323;28;45498;-62
2023/01/09 00:51:04;;;;;;;;;1.75;1.75;;;;;8.62;67.99;99302.16;5052836;28;45481;-62
2023/01/09 00:53:30;;;;;;;;;2.50;0.50;;;;;8.55;67.67;99305.00;5052564;28;45487;-61
2023/01/09 00:56:00;;;;;;;;;2.60;1.00;;;;;8.50;67.60;99307.56;5051561;28;45388;-64
2023/01/09 00:58:26;;;;;;;;;2.00;0.40;;;;;8.55;67.87;99307.75;5050895;28;45389;-63
2023/01/09 01:00:52;;;;;;;;;0.00;0.00;;;;;8.33;68.35;99282.78;5052454;28;45510;-63
2023/01/09 01:03:17;;;;;;;;;1.00;1.00;;;;;8.41;67.92;99286.03;5053789;28;45430;-61
2023/01/09 01:08:27;;;;;;;;;3.60;1.00;;;;;8.59;67.58;99313.56;5056102;28;45466;-63
2023/01/09 01:10:52;;;;;;;;;1.00;1.00;;;;;8.57;68.03;99316.53;5055812;28;45741;-63
2023/01/09 01:13:18;;;;;;;;;2.00;1.00;;;;;8.54;68.10;99320.56;5038707;28;45406;-64
2023/01/09 01:15:44;;;;;;;;;1.00;1.00;;;;;8.17;68.21;99255.03;5056260;28;45436;-64
2023/01/09 01:18:10;;;;;;;;;2.20;1.00;;;;;8.49;67.69;99301.25;5055613;28;45410;-63
2023/01/09 01:20:38;;;;;;;;;1.20;0.00;;;;;8.49;68.31;99323.13;5071947;28;46262;-64
2023/01/09 01:23:03;;;;;;;;;1.40;0.20;;;;;8.45;68.20;99313.75;5056560;28;45355;-63
2023/01/09 01:25:29;;;;;;;;;2.00;2.00;;;;;8.49;68.20;99320.38;5056973;28;45329;-63
2023/01/09 01:27:55;;;;;;;;;2.00;0.00;;;;;8.53;68.77;99316.16;5056620;28;45416;-63
2023/01/09 01:30:20;;;;;;;;;1.75;1.00;;;;;8.55;67.96;99313.22;5056235;28;46124;-64
2023/01/09 01:32:46;;;;;;;;;0.50;0.50;;;;;8.53;68.02;99320.78;5056265;28;45319;-65
2023/01/09 01:35:11;;;;;;;;;2.00;1.75;;;;;8.37;68.42;99306.69;5056733;28;45219;-64
2023/01/09 01:37:37;;;;;;;;;2.00;1.00;;;;;8.43;68.19;99325.97;5056670;28;45504;-64
2023/01/09 01:40:03;;;;;;;;;5.00;1.00;;;;;8.50;68.20;99343.94;5071866;28;45291;-64
2023/01/09 01:42:29;;;;;;;;;0.00;0.00;;;;;8.47;68.10;99329.91;5056271;28;45322;-63
2023/01/09 01:44:57;;;;;;;;;1.00;0.00;;;;;8.51;68.55;99337.44;5055296;28;45401;-63
2023/01/09 01:47:33;;;;;;;;;1.40;0.20;;;;;8.31;68.06;99317.75;5055001;28;45317;-62
2023/01/09 01:50:00;;;;;;;;;2.80;1.00;;;;;8.49;67.99;99335.97;5069381;28;45399;-65
2023/01/09 01:52:26;;;;;;;;;1.20;1.20;;;;;8.48;69.30;99343.34;5053433;28;45282;-65
2023/01/09 01:54:51;;;;;;;;;3.50;2.00;;;;;8.48;68.52;99346.06;5054334;28;45244;-64
2023/01/09 01:57:17;;;;;;;;;3.00;2.00;;;;;8.49;68.82;99335.97;5070462;28;45532;-64
2023/01/09 01:59:52;;;;;;;;;2.00;2.00;;;;;8.50;67.96;99343.13;5053328;28;45652;-65
2023/01/09 02:02:19;;;;;;;;;2.00;2.00;;;;;8.46;68.85;99334.53;5036835;28;47299;-65
2023/01/09 02:04:45;;;;;;;;;1.00;1.00;;;;;8.53;68.87;99345.41;5042772;28;45437;-64
2023/01/09 02:07:11;;;;;;;;;2.75;1.75;;;;;8.50;68.57;99349.41;5029264;28;45607;-63
2023/01/09 02:09:37;;;;;;;;;2.00;2.00;;;;;8.50;68.81;99332.19;5053596;28;46792;-63
2023/01/09 02:12:15;;;;;;;;;5.00;2.40;;;;;8.52;68.74;99335.53;5036402;28;45457;-63
2023/01/09 02:14:40;;;;;;;;;3.80;0.40;;;;;8.53;68.84;99348.97;5019586;28;45488;-63
2023/01/09 02:17:21;;;;;;;;;0.75;0.75;;;;;8.26;68.69;99311.06;5036469;28;45619;-63
2023/01/09 02:20:14;;;;;;;;;4.00;2.60;;;;;8.47;68.61;99359.97;5054287;28;45572;-64
2023/01/09 02:22:58;;;;;;;;;4.20;1.20;;;;;8.30;68.84;99326.97;5054293;28;45396;-63
2023/01/09 02:25:39;;;;;;;;;2.00;0.80;;;;;8.48;68.99;99340.59;5054191;28;45422;-63
2023/01/09 02:28:31;;;;;;;;;3.00;1.80;;;;;8.47;68.75;99349.88;5068622;28;45358;-63
2023/01/09 02:31:10;;;;;;;;;2.00;2.00;;;;;8.48;68.71;99367.94;5035706;28;47898;-63
2023/01/09 02:33:58;;;;;;;;;1.80;1.00;;;;;8.47;69.11;99369.03;5035444;28;45337;-64
2023/01/09 02:36:33;;;;;;;;;4.20;1.00;;;;;8.47;69.53;99363.56;5052563;28;45484;-65
2023/01/09 02:39:17;;;;;;;;;2.80;2.00;;;;;8.49;68.61;99368.78;5068828;28;45555;-64
2023/01/09 02:42:04;;;;;;;;;3.80;2.00;;;;;8.47;69.30;99370.91;5053863;28;46655;-64
2023/01/09 02:44:30;;;;;;;;;5.40;1.80;;;;;8.47;69.82;99371.75;5008151;28;1299632;-64
2023/01/09 02:47:05;;;;;;;;;1.80;1.80;;;;;8.50;69.35;99371.28;5020494;28;45305;-64
2023/01/09 02:49:36;;;;;;;;;4.20;1.80;;;;;8.51;69.44;99375.75;5055358;28;45493;-65
2023/01/09 02:52:27;;;;;;;;;0.20;0.20;;;;;8.50;68.88;99376.75;5037189;28;48278;-65
2023/01/09 02:55:40;;;;;;;;;2.60;1.00;;;;;8.50;69.11;99379.47;5068405;28;45402;-64
2023/01/09 02:58:06;;;;;;;;;1.20;0.80;;;;;8.53;68.61;99373.59;5022908;28;45679;-65
2023/01/09 03:00:52;;;;;;;;;1.00;1.00;;;;;8.51;69.16;99372.13;5055218;28;45372;-64
2023/01/09 03:03:26;;;;;;;;;2.60;1.20;;;;;8.53;69.49;99370.88;5054712;28;45670;-65
2023/01/09 03:06:24;;;;;;;;;1.20;1.20;;;;;8.48;69.26;99361.66;5040329;27;45542;-64
2023/01/09 03:08:58;;;;;;;;;2.40;2.00;;;;;8.46;69.57;99361.88;5032853;28;45319;-65
2023/01/09 03:11:25;;;;;;;;;1.80;1.00;;;;;8.56;69.26;99372.31;5070933;28;45425;-65
2023/01/09 03:13:52;;;;;;;;;2.00;2.00;;;;;8.53;68.74;99381.81;5053106;28;46420;-64
2023/01/09 03:16:20;;;;;;;;;0.40;0.40;;;;;8.51;69.79;99373.00;5070112;28;45468;-64
2023/01/09 03:18:47;;;;;;;;;1.00;1.00;;;;;8.56;68.97;99385.13;5052799;28;45749;-64
2023/01/09 03:21:12;;;;;;;;;1.80;1.80;;;;;8.56;69.16;99402.38;5053411;28;45711;-64
2023/01/09 03:23:52;;;;;;;;;1.00;1.00;;;;;8.54;68.56;99386.19;5052841;28;46229;-65
2023/01/09 03:26:18;;;;;;;;;1.00;1.00;;;;;8.56;69.45;99401.53;5068959;28;45316;-64
2023/01/09 03:28:44;;;;;;;;;5.50;3.75;;;;;8.27;69.30;99353.72;5069913;28;45364;-64
2023/01/09 03:31:09;;;;;;;;;1.00;1.00;;;;;8.38;68.58;99375.88;5054918;28;45334;-64
2023/01/09 03:33:35;;;;;;;;;3.50;2.00;;;;;8.48;69.89;99380.81;5054302;28;46087;-63
2023/01/09 03:36:00;;;;;;;;;0.75;0.75;;;;;8.56;68.92;99396.06;5050229;27;45705;-64
2023/01/09 03:38:26;;;;;;;;;3.00;0.00;;;;;8.51;68.47;99377.59;5034445;28;45323;-63
2023/01/09 03:40:51;;;;;;;;;1.00;1.00;;;;;8.56;69.44;99404.28;5033321;28;45298;-64
2023/01/09 03:43:17;;;;;;;;;6.50;0.00;;;;;8.58;68.55;99396.69;5048586;28;46090;-64
2023/01/09 03:45:42;;;;;;;;;3.00;1.00;;;;;8.40;68.85;99371.00;5034053;28;45266;-64
2023/01/09 03:48:08;;;;;;;;;2.00;2.00;;;;;8.62;68.85;99401.47;5033171;28;45266;-65
2023/01/09 03:50:33;;;;;;;;;1.00;1.00;;;;;8.49;68.41;99375.09;5034395;28;45366;-64
2023/01/09 03:52:59;;;;;;;;;1.00;1.00;;;;;8.64;68.59;99399.31;5037161;28;45362;-65
2023/01/09 03:55:24;;;;;;;;;4.00;2.50;;;;;8.55;68.63;99389.78;5037528;28;45403;-65
2023/01/09 03:57:51;;;;;;;;;1.75;1.00;;;;;8.61;68.85;99398.94;5037697;28;45335;-65
2023/01/09 04:00:20;;;;;;;;;2.00;2.00;;;;;8.62;68.56;99395.13;5037664;28;45300;-65
2023/01/09 04:02:46;;;;;;;;;2.80;1.60;;;;;8.62;68.88;99409.66;5036365;28;46509;-66
2023/01/09 04:05:11;;;;;;;;;1.00;0.25;;;;;8.63;69.39;99407.75;5052761;28;45369;-65
2023/01/09 04:07:37;;;;;;;;;1.25;0.25;;;;;8.64;68.55;99414.91;5036181;28;45415;-64
2023/01/09 04:10:03;;;;;;;;;2.00;2.00;;;;;8.58;68.57;99426.78;5036037;28;45255;-65
2023/01/09 04:12:28;;;;;;;;;2.00;1.50;;;;;8.52;67.87;99426.63;5036236;28;47647;-65
2023/01/09 04:14:54;;;;;;;;;2.75;2.75;;;;;8.58;68.48;99437.72;5035847;28;45436;-66
2023/01/09 04:17:19;;;;;;;;;2.50;1.00;;;;;8.56;69.06;99435.19;5073282;28;45340;-64
2023/01/09 04:19:44;;;;;;;;;1.50;0.00;;;;;8.65;69.24;99441.19;5057675;28;45347;-65
2023/01/09 04:22:10;;;;;;;;;2.25;0.25;;;;;8.48;68.28;99427.28;5057058;28;45912;-65
2023/01/09 04:24:35;;;;;;;;;4.25;1.00;;;;;8.49;68.82;99415.28;5057219;28;45315;-65
2023/01/09 04:27:01;;;;;;;;;1.00;0.75;;;;;8.68;69.06;99449.78;5057397;28;45303;-65
2023/01/09 04:29:27;;;;;;;;;1.00;0.00;;;;;8.79;69.04;99455.50;5057371;28;45233;-64
2023/01/09 04:31:52;;;;;;;;;1.50;1.00;;;;;8.82;68.56;99455.06;5057243;28;45540;-66
2023/01/09 04:34:18;;;;;;;;;2.00;1.50;;;;;8.84;68.47;99449.34;5072490;28;45401;-65
2023/01/09 04:36:44;;;;;;;;;1.00;0.00;;;;;8.78;68.95;99438.28;5039286;28;45417;-65
2023/01/09 04:39:09;;;;;;;;;2.00;1.00;;;;;8.84;68.72;99452.06;5057250;28;45449;-64
2023/01/09 04:41:50;;;;;;;;;2.25;1.25;;;;;8.75;68.03;99433.25;5057118;28;46051;-65
2023/01/09 04:44:17;;;;;;;;;1.40;1.40;;;;;8.80;68.42;99444.34;5056351;28;45397;-65
2023/01/09 04:46:42;;;;;;;;;1.40;0.00;;;;;8.71;68.89;99437.53;5057110;28;45387;-65
2023/01/09 04:49:08;;;;;;;;;0.25;0.25;;;;;8.65;67.99;99427.53;5057469;28;45406;-65
2023/01/09 04:51:33;;;;;;;;;0.00;0.00;;;;;8.80;68.51;99446.22;5057324;28;46542;-64
2023/01/09 04:53:59;;;;;;;;;1.50;0.50;;;;;8.81;68.65;99453.41;5057125;28;45341;-64
2023/01/09 04:56:24;;;;;;;;;3.00;0.00;;;;;8.82;68.37;99464.09;5072243;28;45579;-64
2023/01/09 04:58:50;;;;;;;;;0.00;0.00;;;;;8.80;68.25;99455.28;5057574;28;45220;-65
2023/01/09 05:01:15;;;;;;;;;1.00;1.00;;;;;8.84;68.30;99450.19;5056513;28;45405;-63
2023/01/09 05:03:40;;;;;;;;;2.00;1.00;;;;;8.85;68.38;99451.84;5038482;28;45456;-64
2023/01/09 05:06:06;;;;;;;;;3.00;0.75;;;;;8.81;68.65;99443.25;5039047;28;45509;-64
2023/01/09 05:08:32;;;;;;;;;3.75;1.00;;;;;8.89;68.32;99441.25;5056998;28;45632;-64
2023/01/09 05:10:57;;;;;;;;;1.00;0.00;;;;;8.84;68.31;99446.59;5056774;28;46096;-64
2023/01/09 05:13:23;;;;;;;;;1.25;1.00;;;;;8.64;67.88;99425.84;5027489;28;45943;-65
2023/01/09 05:15:48;;;;;;;;;1.25;1.25;;;;;8.86;68.89;99467.19;5056845;28;45438;-65
2023/01/09 05:18:14;;;;;;;;;1.50;0.25;;;;;8.85;68.53;99470.19;5057085;28;45552;-65
2023/01/09 05:20:40;;;;;;;;;1.25;0.50;;;;;8.87;68.28;99466.16;5056321;28;46204;-67
2023/01/09 05:23:05;;;;;;;;;0.25;0.25;;;;;8.84;68.29;99477.53;5056899;28;45278;-66
2023/01/09 05:25:31;;;;;;;;;1.00;1.00;;;;;8.86;68.57;99471.84;5056704;28;45268;-65
2023/01/09 05:27:56;;;;;;;;;1.00;1.00;;;;;8.87;69.08;99466.16;5057103;28;45328;-62
2023/01/09 05:30:22;;;;;;;;;4.75;2.00;;;;;8.91;68.19;99496.63;5056368;28;46331;-65
2023/01/09 05:32:47;;;;;;;;;2.50;1.00;;;;;8.86;68.04;99491.81;5056424;28;45312;-64
2023/01/09 05:35:13;;;;;;;;;1.00;1.00;;;;;8.86;68.38;99491.81;5056648;28;45373;-65
2023/01/09 05:37:38;;;;;;;;;0.75;0.75;;;;;8.73;67.60;99468.22;5056851;28;45605;-65
2023/01/09 05:40:04;;;;;;;;;0.00;0.00;;;;;8.93;67.24;99497.22;5054815;28;47744;-65
2023/01/09 05:42:30;;;;;;;;;5.80;1.00;;;;;8.90;67.15;99506.72;5071755;28;45403;-64
2023/01/09 05:44:55;;;;;;;;;0.00;0.00;;;;;8.88;67.71;99503.38;5056011;28;45439;-63
2023/01/09 05:47:21;;;;;;;;;0.00;0.00;;;;;8.85;66.47;99506.56;5072065;28;45485;-63
2023/01/09 05:49:47;;;;;;;;;0.00;0.00;;;;;8.67;66.59;99469.16;5055749;28;46363;-64
2023/01/09 05:52:12;;;;;;;;;2.75;0.75;;;;;8.64;66.11;99478.63;5056091;28;45398;-63
2023/01/09 05:54:37;;;;;;;;;2.50;1.50;;;;;8.71;66.81;99491.41;5037812;28;45361;-63
2023/01/09 05:57:03;;;;;;;;;0.25;0.25;;;;;8.78;65.94;99514.88;5071668;28;45524;-63
2023/01/09 05:59:28;;;;;;;;;0.50;0.50;;;;;8.73;65.83;99512.00;5071146;28;46069;-63
2023/01/09 06:01:54;;;;;;;;;0.50;0.50;;;;;8.80;66.15;99517.34;5071139;28;45339;-63
2023/01/09 06:04:19;;;;;;;;;2.00;0.00;;;;;8.84;66.66;99531.41;5055723;28;45287;-64
2023/01/09 06:06:45;;;;;;;;;0.00;0.00;;;;;8.79;66.62;99532.13;5056044;28;45339;-64
2023/01/09 06:09:10;;;;;;;;;0.50;0.00;;;;;8.78;66.04;99520.34;5037191;28;47237;-64
2023/01/09 06:11:37;;;;;;;;;1.25;1.25;;;;;8.82;66.12;99520.72;5071090;28;45252;-64
2023/01/09 06:14:04;;;;;;;;;1.00;0.00;;;;;8.81;65.98;99525.34;5054650;28;45318;-64
2023/01/09 06:16:29;;;;;;;;;1.20;1.00;;;;;8.79;66.22;99529.38;5037685;28;45399;-64
2023/01/09 06:18:55;;;;;;;;;0.00;0.00;;;;;8.78;66.18;99524.97;5037167;28;45874;-64
2023/01/09 06:21:20;;;;;;;;;4.00;2.50;;;;;8.73;65.62;99519.34;5055169;28;45339;-64
2023/01/09 06:23:46;;;;;;;;;1.50;1.00;;;;;8.73;66.35;99528.41;5037351;28;45279;-64
2023/01/09 06:26:11;;;;;;;;;1.00;0.25;;;;;8.75;66.22;99541.88;5037563;28;45591;-63
2023/01/09 06:28:37;;;;;;;;;1.00;0.00;;;;;8.68;65.53;99541.94;5055519;28;46187;-63
2023/01/09 06:31:03;;;;;;;;;1.75;0.50;;;;;8.68;64.77;99552.88;5020121;28;45394;-64
2023/01/09 06:33:28;;;;;;;;;0.00;0.00;;;;;8.60;65.59;99540.31;5055604;28;45341;-63
2023/01/09 06:35:53;;;;;;;;;2.75;2.50;;;;;8.51;66.04;99514.31;5020724;28;45404;-65
2023/01/09 06:38:19;;;;;;;;;0.75;0.75;;;;;8.74;64.81;99554.69;5055370;28;45323;-65
2023/01/09 06:40:45;;;;;;;;;1.75;1.00;;;;;8.58;64.90;99525.25;5037047;28;45313;-64
2023/01/09 06:43:11;;;;;;;;;1.00;1.00;;;;;8.78;63.91;99572.34;5037086;28;45369;-65
2023/01/09 06:45:36;;;;;;;;;0.75;0.75;;;;;8.77;65.27;99584.34;5037419;28;45339;-64
2023/01/09 06:48:02;;;;;;;;;0.00;0.00;;;;;8.77;64.84;99578.88;5020378;28;45370;-65
2023/01/09 06:50:27;;;;;;;;;0.00;0.00;;;;;8.78;64.10;99591.47;5055319;28;45324;-65
2023/01/09 06:52:53;;;;;;;;;2.25;1.00;;;;;8.76;64.46;99570.88;5037260;28;45358;-65
2023/01/09 06:55:18;;;;;;;;;2.00;2.00;;;;;8.77;64.02;99591.72;5037162;28;45913;-65
2023/01/09 06:57:44;;;;;;;;;0.00;0.00;;;;;8.78;64.17;99585.16;4983536;28;46576;-65
2023/01/09 07:00:10;;;;;;;;;1.00;0.00;;;;;8.61;64.42;99568.53;5054915;28;45302;-65
2023/01/09 07:02:36;;;;;;;;;1.60;0.00;;;;;8.74;64.76;99583.94;5055120;28;45369;-65
2023/01/09 07:05:02;;;;;;;;;2.25;1.00;;;;;8.62;63.84;99571.03;5053584;28;45499;-65
2023/01/09 07:07:27;;;;;;;;;0.00;0.00;;;;;8.48;63.47;99564.84;5055135;28;45970;-65
2023/01/09 07:09:53;;;;;;;;;1.00;1.00;;;;;8.47;63.49;99571.38;5054812;28;45413;-65
2023/01/09 07:12:18;;;;;;;;;0.75;0.75;;;;;8.70;63.53;99610.91;5070762;28;45358;-64
2023/01/09 07:14:44;;;;;;;;;1.50;0.00;;;;;8.64;63.54;99620.88;5070811;28;45604;-65
2023/01/09 07:17:12;;;;;;;;;0.75;0.25;;;;;8.62;64.13;99613.97;5054435;28;45625;-66
2023/01/09 07:19:38;;;;;;;;;0.00;0.00;;;;;8.61;63.88;99609.56;5020269;28;45448;-65
2023/01/09 07:22:03;;;;;;;;;1.00;0.00;;;;;8.63;63.58;99616.47;5054777;28;45418;-65
2023/01/09 07:24:29;;;;;;;;;0.50;0.00;;;;;8.65;63.75;99619.00;5003752;28;45301;-64
2023/01/09 07:26:54;;;;;;;;;1.50;0.00;;;;;8.62;64.06;99609.34;5036337;28;45717;-62
2023/01/09 07:29:20;;;;;;;;;4.00;1.75;;;;;8.55;63.16;99597.63;5054412;28;45413;-66
2023/01/09 07:31:46;;;;;;;;;1.00;0.00;;;;;8.65;64.12;99613.53;5054643;28;45398;-65
2023/01/09 07:34:11;;;;;;;;;0.50;0.00;;;;;8.68;63.39;99619.38;5054714;28;45540;-66
2023/01/09 07:36:37;;;;;;;;;2.00;0.00;;;;;8.61;64.18;99604.09;5036405;28;45714;-63
2023/01/09 07:39:02;;;;;;;;;1.25;1.00;;;;;8.59;63.88;99619.91;5036035;28;45345;-65
2023/01/09 07:41:28;;;;;;;;;1.00;1.00;;;;;8.33;64.31;99569.84;5019997;28;45348;-64
2023/01/09 07:43:53;;;;;;;;;0.00;0.00;;;;;8.51;63.55;99619.13;5036297;28;45344;-64
2023/01/09 07:46:19;;;;;;;;;0.00;0.00;;;;;8.62;63.65;99633.94;5053872;28;45313;-64
2023/01/09 07:48:45;;;;;;;;;2.00;0.00;;;;;8.63;64.36;99638.34;5054635;28;45318;-64
2023/01/09 07:51:10;;;;;;;;;2.00;0.00;;;;;8.61;64.04;99637.75;5036426;28;45427;-64
2023/01/09 07:53:36;;;;;;;;;1.50;0.00;;;;;8.60;63.24;99643.44;5054804;28;45331;-65
2023/01/09 07:56:01;;;;;;;;;1.00;0.00;;;;;8.61;63.87;99651.44;5054133;28;45980;-64
2023/01/09 07:58:27;;;;;;;;;1.00;0.00;;;;;8.60;63.22;99665.31;5036052;28;45334;-64
2023/01/09 08:00:52;;;;;;;;;0.00;0.00;;;;;8.60;64.08;99671.63;5020924;28;46278;-65
2023/01/09 08:03:18;;;;;;;;;0.00;0.00;;;;;8.48;62.89;99660.56;5034600;28;46096;-65
2023/01/09 08:05:44;;;;;;;;;0.50;0.50;;;;;8.37;63.41;99647.59;5033396;28;45715;-63
2023/01/09 08:08:10;;;;;;;;;1.40;0.00;;;;;8.45;63.51;99685.63;4999646;28;45421;-65
2023/01/09 08:10:36;;;;;;;;;0.00;0.00;;;;;8.50;64.14;99683.03;5033566;28;45403;-64
2023/01/09 08:13:05;;;;;;;;;0.50;0.00;;;;;8.57;63.44;99684.91;5034706;28;45338;-64
2023/01/09 08:15:32;;;;;;;;;2.80;1.40;;;;;8.56;63.78;99678.63;5035348;28;45739;-63
2023/01/09 08:17:58;;;;;;;;;0.60;0.40;;;;;8.44;62.92;99659.34;5052884;28;45758;-64
2023/01/09 08:20:23;;;;;;;;;0.00;0.00;;;;;8.63;62.51;99692.22;5054260;28;45259;-66
2023/01/09 08:22:49;;;;;;;;;0.00;0.00;;;;;8.63;63.48;99711.38;5035827;28;45346;-67
2023/01/09 08:25:15;;;;;;;;;0.00;0.00;;;;;8.36;62.89;99674.13;5052478;28;46109;-67
2023/01/09 08:27:40;;;;;;;;;0.00;0.00;;;;;8.48;63.21;99709.78;5069500;28;45883;-68
2023/01/09 08:30:11;;;;;;;;;0.00;0.00;;;;;8.49;63.10;99721.56;5053830;28;45420;-67
2023/01/09 08:32:37;;;;;;;;;1.20;0.80;;;;;8.47;63.64;99719.06;5052100;28;45249;-66
2023/01/09 08:35:03;;;;;;;;;0.00;0.00;;;;;8.38;62.56;99706.72;5035528;28;45816;-66
2023/01/09 08:37:28;;;;;;;;;1.60;1.60;;;;;8.36;63.06;99719.75;5036673;28;45494;-66
2023/01/09 08:39:55;;;;;;;;;2.00;0.50;;;;;8.36;64.05;99709.69;5056792;28;45405;-67
2023/01/09 08:47:49;;;;;;;;;0.40;0.00;;;;;8.33;63.51;99715.56;5056745;28;45441;-66
2023/01/09 08:50:14;;;;;;;;;1.00;1.00;;;;;8.35;63.42;99710.75;5022289;28;45411;-67
2023/01/09 08:52:40;;;;;;;;;0.25;0.25;;;;;8.30;63.70;99729.69;5038927;28;45589;-66
2023/01/09 08:55:05;;;;;;;;;1.00;0.00;;;;;8.02;63.66;99681.75;5056834;28;45441;-66
2023/01/09 08:57:31;;;;;;;;;0.00;0.00;;;;;8.19;63.66;99733.13;5038852;28;45473;-66
2023/01/09 08:59:56;;;;;;;;;0.00;0.00;;;;;8.13;63.00;99746.63;5022045;28;45565;-66
2023/01/09 09:02:22;;;;;;;;;0.25;0.00;;;;;7.93;63.78;99724.06;5022028;28;45321;-66
2023/01/09 09:04:51;;;;;;;;;0.00;0.00;;;;;8.18;63.47;99758.81;5056599;28;45346;-66
2023/01/09 09:07:25;;;;;;;;;0.00;0.00;;;;;8.07;63.79;99750.25;5039335;28;45841;-65
2023/01/09 09:09:53;;;;;;;;;2.60;1.00;;;;;8.19;64.06;99769.53;5056212;28;45306;-66
2023/01/09 09:12:19;;;;;;;;;1.00;0.00;;;;;8.18;63.73;99769.75;5038482;28;45655;-67
2023/01/09 09:17:29;;;;;;;;;0.00;0.00;;;;;8.19;63.00;99768.69;5056539;28;45500;-62
2023/01/09 09:19:54;;;;;;;;;3.00;1.25;;;;;8.26;63.30;99783.13;5055031;28;45457;-63
2023/01/09 09:22:20;;;;;;;;;1.50;0.00;;;;;8.22;63.51;99792.84;5056479;28;45584;-62
2023/01/09 09:24:45;;;;;;;;;0.75;0.75;;;;;8.28;63.55;99803.72;5056284;28;46255;-62
2023/01/09 09:27:11;;;;;;;;;0.00;0.00;;;;;8.17;63.62;99771.63;5044281;28;45634;-63
2023/01/09 09:29:36;;;;;;;;;0.00;0.00;;;;;8.37;63.40;99807.06;5053652;28;45910;-64
2023/01/09 09:32:02;;;;;;;;;0.50;0.50;;;;;8.44;63.07;99808.91;5054953;28;45531;-62
2023/01/09 09:34:28;;;;;;;;;0.00;0.00;;;;;8.45;63.15;99816.91;5054158;28;45502;-66
2023/01/09 09:36:54;;;;;;;;;0.00;0.00;;;;;8.42;63.12;99806.38;5070519;28;45345;-67
2023/01/09 09:39:19;;;;;;;;;1.20;0.60;;;;;8.42;63.27;99820.06;5070280;28;45391;-67
2023/01/09 09:44:52;;;;;;;;;1.00;0.00;;;;;8.43;62.79;99827.19;5067763;28;45715;-63
2023/01/09 09:47:42;;;;;;;;;4.00;0.00;;;;;8.46;62.94;99839.59;5054618;28;45427;-63
2023/01/09 09:50:19;;;;;;;;;0.00;0.00;;;;;8.43;63.32;99843.59;5035149;28;45947;-63
2023/01/09 09:53:36;;;;;;;;;0.80;0.00;;;;;8.41;63.34;99856.66;5053172;28;45386;-64
2023/01/09 09:56:02;;;;;;;;;0.00;0.00;;;;;8.21;62.97;99832.19;5042157;28;45722;-62
2023/01/09 09:58:39;;;;;;;;;1.75;1.00;;;;;7.97;63.79;99791.72;5029559;28;45442;-62
2023/01/09 10:01:05;;;;;;;;;0.80;0.80;;;;;8.45;63.31;99876.22;5044168;28;45801;-65
2023/01/09 10:03:37;;;;;;;;;0.00;0.00;;;;;8.57;62.80;99874.47;5006065;28;45472;-63
2023/01/09 10:06:40;;;;;;;;;1.40;0.00;;;;;8.72;62.56;99878.81;5007340;28;46112;-62
2023/01/09 10:09:27;;;;;;;;;0.40;0.40;;;;;8.87;62.74;99884.81;5048910;28;45435;-61
2023/01/09 10:12:17;;;;;;;;;1.20;0.00;;;;;8.89;62.76;99896.38;5027326;28;45887;-64
2023/01/09 10:14:43;;;;;;;;;0.00;0.00;;;;;8.86;61.81;99887.78;5050267;28;45462;-64
2023/01/09 10:17:25;;;;;;;;;0.00;0.00;;;;;8.72;61.56;99857.78;5049185;28;46054;-66
2023/01/09 10:20:29;;;;;;;;;0.00;0.00;;;;;8.84;61.83;99896.19;5047749;28;45793;-64
2023/01/09 10:23:07;;;;;;;;;0.00;0.00;;;;;8.94;61.93;99902.03;5043982;28;45520;-65
2023/01/09 10:25:48;;;;;;;;;0.80;0.00;;;;;8.92;61.94;99915.06;5047996;28;45930;-65
2023/01/09 10:28:35;;;;;;;;;8.00;6.40;;;;;8.87;61.00;99916.81;5040943;27;45446;-64
2023/01/09 10:31:13;;;;;;;;;5.20;1.00;;;;;8.72;62.14;99915.22;5050266;28;45532;-64
2023/01/09 10:33:53;;;;;;;;;3.40;2.20;;;;;8.68;62.37;99889.34;5031946;28;45594;-63
2023/01/09 10:36:19;;;;;;;;;1.00;1.00;;;;;8.79;61.41;99893.28;5050649;28;45577;-65
2023/01/09 10:38:46;;;;;;;;;4.00;2.50;;;;;9.11;61.32;99933.50;5050222;28;45854;-65
2023/01/09 10:41:14;;;;;;;;;5.40;2.40;;;;;9.09;60.96;99933.72;5032379;28;45585;-66
2023/01/09 10:43:46;;;;;;;;;0.60;0.60;;;;;8.97;61.77;99922.66;5032485;28;45461;-64
2023/01/09 10:46:23;;;;;;;;;4.20;2.60;;;;;9.04;61.07;99925.31;5033128;28;45500;-65
2023/01/09 10:48:51;;;;;;;;;1.00;1.00;;;;;8.98;60.66;99924.31;5031658;28;46423;-64
2023/01/09 10:51:18;;;;;;;;;0.00;0.00;;;;;9.14;60.11;99947.56;5049192;28;45452;-65
2023/01/09 10:53:46;;;;;;;;;1.20;0.40;;;;;9.17;60.29;99936.16;5032972;28;45903;-65
2023/01/09 10:56:21;;;;;;;;;0.60;0.60;;;;;9.31;59.75;99944.28;5033055;28;45691;-64
2023/01/09 10:58:46;;;;;;;;;0.00;0.00;;;;;8.98;59.69;99894.22;5050750;28;46017;-63
2023/01/09 11:01:12;;;;;;;;;2.00;1.00;;;;;9.14;59.68;99925.69;5036464;27;45685;-64
2023/01/09 11:03:37;;;;;;;;;0.00;0.00;;;;;9.28;60.13;99947.47;5065793;28;45478;-64
2023/01/09 11:06:16;;;;;;;;;0.00;0.00;;;;;9.27;60.22;99945.78;5051231;28;45463;-65
2023/01/09 11:08:42;;;;;;;;;0.00;0.00;;;;;9.28;60.12;99956.50;5032973;28;46728;-62
2023/01/09 11:11:08;;;;;;;;;2.25;1.00;;;;;9.35;60.77;99957.28;5057621;28;45505;-63
2023/01/09 11:13:35;;;;;;;;;0.00;0.00;;;;;9.35;60.67;99962.78;5049614;28;45476;-64
2023/01/09 11:16:09;;;;;;;;;0.80;0.80;;;;;9.39;59.91;99954.94;5050783;28;45498;-63
2023/01/09 11:18:56;;;;;;;;;0.00;0.00;;;;;9.46;59.88;99957.66;5030645;28;45513;-64
2023/01/09 11:21:34;;;;;;;;;0.00;0.00;;;;;9.45;59.38;99950.50;5029212;28;45464;-65
2023/01/09 11:24:20;;;;;;;;;0.00;0.00;;;;;9.36;59.27;99923.38;5030293;28;45504;-64
2023/01/09 11:26:51;;;;;;;;;0.00;0.00;;;;;9.36;59.64;99909.66;5042905;28;45545;-64
2023/01/09 11:29:18;;;;;;;;;5.20;1.00;;;;;9.69;58.66;99953.41;5048260;28;46320;-65
2023/01/09 11:31:50;;;;;;;;;0.00;0.00;;;;;9.84;58.46;99942.09;5050240;28;45511;-64
2023/01/09 11:34:24;;;;;;;;;0.00;0.00;;;;;10.16;57.52;99951.03;5050377;28;45487;-65
2023/01/09 11:36:50;;;;;;;;;2.60;1.00;;;;;10.21;57.91;99936.66;5048902;28;45479;-64
2023/01/09 11:39:25;;;;;;;;;1.00;1.00;;;;;12.67;53.49;99953.31;5049364;28;45570;-63
2023/01/09 11:41:58;;;;;;;;;1.00;0.20;;;;;15.88;46.87;99944.75;5050075;28;45833;-63
2023/01/09 11:44:23;;;;;;;;;0.00;0.00;;;;;18.79;39.92;99931.88;5050169;28;45389;-63
2023/01/09 11:46:49;;;;;;;;;3.00;1.00;;;;;20.08;36.93;99934.75;5050365;28;45552;-65
2023/01/09 11:49:14;;;;;;;;;0.75;0.75;;;;;17.68;39.98;99951.97;4999113;28;47485;-63
2023/01/09 11:51:40;;;;;;;;;2.75;1.00;;;;;15.64;43.49;99956.25;5049237;28;45503;-63
2023/01/09 11:54:25;;;;;;;;;0.00;0.00;;;;;14.07;46.54;99956.50;5050115;28;46066;-61
2023/01/09 11:56:51;;;;;;;;;1.60;1.00;;;;;13.10;47.82;99960.19;5015840;28;45629;-61
2023/01/09 11:59:27;;;;;;;;;0.00;0.00;;;;;12.36;50.14;99959.03;5032073;28;46173;-62
2023/01/09 12:02:11;;;;;;;;;1.00;1.00;;;;;11.88;51.48;99961.00;5014310;28;45535;-64
2023/01/09 12:04:41;;;;;;;;;0.40;0.40;;;;;11.56;52.76;99966.84;5029666;28;45497;-66